Time;durP1;ratioP1;P1;durP2;ratioP2;P2;SDS_P1;SDS_P2;PMS_P1;PMS_P2;Temp;Humidity;BMP_temperature;BMP_pressure;BME280_temperature;BME280_humidity;BME280_pressure;Samples;Min_cycle;Max_cycle;Signal;HPM_P1;HPM_P2
2023/07/06 00:01:22;;;;;;;11.47;11.00;;;17.70;99.90;;;;;;4974216;28;20839;-76
2023/07/06 00:03:49;;;;;;;11.30;10.60;;;17.80;99.90;;;;;;4970249;28;20503;-76
2023/07/06 00:06:18;;;;;;;11.30;10.80;;;17.80;99.90;;;;;;4974282;28;20949;-76
2023/07/06 00:08:45;;;;;;;11.50;11.00;;;17.80;99.90;;;;;;4974294;28;20439;-75
2023/07/06 00:11:12;;;;;;;11.23;10.63;;;17.70;99.90;;;;;;4974653;28;20440;-75
2023/07/06 00:13:39;;;;;;;11.50;11.10;;;17.70;99.90;;;;;;4974621;28;20444;-76
2023/07/06 00:16:06;;;;;;;12.47;11.97;;;17.60;99.90;;;;;;4974208;28;20461;-76
2023/07/06 00:18:33;;;;;;;11.00;10.50;;;17.60;99.90;;;;;;4974278;28;20447;-76
2023/07/06 00:21:01;;;;;;;11.90;11.30;;;17.50;99.90;;;;;;4974141;28;20530;-76
2023/07/06 00:23:31;;;;;;;12.67;12.00;;;17.50;99.90;;;;;;4971771;28;20535;-76
2023/07/06 00:25:58;;;;;;;12.20;11.73;;;17.40;99.90;;;;;;4974293;28;20456;-76
2023/07/06 00:28:28;;;;;;;12.17;11.77;;;17.40;99.90;;;;;;4974041;28;20451;-76
2023/07/06 00:31:01;;;;;;;10.90;10.40;;;17.30;99.90;;;;;;4974027;28;20462;-76
2023/07/06 00:33:29;;;;;;;11.40;11.00;;;17.20;99.90;;;;;;4974063;28;20448;-77
2023/07/06 00:35:56;;;;;;;11.80;11.30;;;17.10;99.90;;;;;;4974046;28;20458;-76
2023/07/06 00:38:24;;;;;;;11.67;11.20;;;17.10;99.90;;;;;;4973719;28;20535;-77
2023/07/06 00:40:56;;;;;;;12.60;12.00;;;17.10;99.90;;;;;;4971410;28;20519;-77
2023/07/06 00:43:24;;;;;;;11.57;10.97;;;17.10;99.90;;;;;;4973789;28;20443;-76
2023/07/06 00:45:54;;;;;;;11.70;11.30;;;17.10;99.90;;;;;;4971374;28;20506;-76
2023/07/06 00:48:26;;;;;;;13.60;13.10;;;17.00;99.90;;;;;;4973620;28;20444;-77
2023/07/06 00:50:56;;;;;;;11.50;11.00;;;16.90;99.90;;;;;;4971630;28;20519;-77
2023/07/06 00:53:26;;;;;;;12.20;11.70;;;16.90;99.90;;;;;;4973552;28;20526;-76
2023/07/06 00:55:57;;;;;;;12.27;11.87;;;16.90;99.90;;;;;;4971710;28;20810;-76
2023/07/06 00:58:30;;;;;;;12.03;11.43;;;16.90;99.90;;;;;;4973491;28;20448;-76
2023/07/06 01:01:01;;;;;;;12.13;11.53;;;16.90;99.90;;;;;;4973544;28;20490;-76
2023/07/06 01:03:28;;;;;;;12.00;11.27;;;16.90;99.90;;;;;;4973436;28;20474;-79
2023/07/06 01:06:03;;;;;;;11.60;11.17;;;16.90;99.90;;;;;;4973065;28;20483;-75
2023/07/06 01:08:35;;;;;;;12.90;12.10;;;16.80;99.90;;;;;;4973948;28;20455;-75
2023/07/06 01:11:04;;;;;;;12.27;11.77;;;16.80;99.90;;;;;;4973693;28;20455;-75
2023/07/06 01:13:32;;;;;;;12.43;11.80;;;16.70;99.90;;;;;;4973669;28;20893;-75
2023/07/06 01:16:05;;;;;;;11.10;10.70;;;16.70;99.90;;;;;;4973577;28;20542;-76
2023/07/06 01:18:42;;;;;;;11.93;11.43;;;16.60;99.90;;;;;;4973477;28;20498;-76
2023/07/06 01:21:14;;;;;;;11.87;11.17;;;16.70;99.90;;;;;;4973279;28;21067;-76
2023/07/06 01:24:14;;;;;;;12.60;12.07;;;16.60;99.90;;;;;;4973596;28;20942;-76
2023/07/06 01:26:59;;;;;;;12.87;12.20;;;16.50;99.90;;;;;;4973403;28;20459;-75
2023/07/06 01:29:52;;;;;;;11.50;11.00;;;16.50;99.90;;;;;;4973375;28;20447;-76
2023/07/06 01:32:25;;;;;;;10.77;10.23;;;16.40;99.90;;;;;;4973267;28;20550;-76
2023/07/06 01:34:58;;;;;;;10.97;10.57;;;16.40;99.90;;;;;;4973343;28;20496;-76
2023/07/06 01:37:31;;;;;;;12.00;11.50;;;16.30;99.90;;;;;;4973232;28;20456;-76
2023/07/06 01:39:59;;;;;;;12.73;12.23;;;16.30;99.90;;;;;;4973163;28;20456;-76
2023/07/06 01:42:29;;;;;;;13.23;12.63;;;16.30;99.90;;;;;;4973221;28;20456;-75
2023/07/06 01:44:59;;;;;;;13.00;12.50;;;16.20;99.90;;;;;;4973082;28;20527;-75
2023/07/06 01:47:29;;;;;;;11.90;11.50;;;16.20;99.90;;;;;;4972935;28;20448;-76
2023/07/06 01:49:57;;;;;;;12.07;11.57;;;16.20;99.90;;;;;;4972869;28;20518;-76
2023/07/06 01:52:34;;;;;;;11.97;11.57;;;16.10;99.90;;;;;;4972408;28;20507;-76
2023/07/06 01:55:09;;;;;;;13.13;12.60;;;16.00;99.90;;;;;;4972735;28;20456;-76
2023/07/06 01:57:43;;;;;;;12.07;11.57;;;16.00;99.90;;;;;;4972786;28;20455;-76
2023/07/06 02:00:14;;;;;;;11.67;11.27;;;16.00;99.90;;;;;;4972672;28;20455;-76
2023/07/06 02:02:44;;;;;;;12.37;11.67;;;16.00;99.90;;;;;;4972781;28;20539;-76
2023/07/06 02:05:12;;;;;;;12.80;12.20;;;15.90;99.90;;;;;;4972469;28;20491;-76
2023/07/06 02:07:41;;;;;;;11.80;11.30;;;15.90;99.90;;;;;;4972517;28;20550;-75
2023/07/06 02:10:09;;;;;;;12.60;11.90;;;15.80;99.90;;;;;;4972542;28;20518;-75
2023/07/06 02:12:36;;;;;;;13.70;13.10;;;15.80;99.90;;;;;;4972378;28;20483;-76
2023/07/06 02:15:03;;;;;;;14.20;13.40;;;15.70;99.90;;;;;;4972343;28;20451;-75
2023/07/06 02:17:30;;;;;;;13.60;13.07;;;15.60;99.90;;;;;;4972646;28;20459;-75
2023/07/06 02:19:58;;;;;;;12.40;11.80;;;15.60;99.90;;;;;;4972569;28;20473;-75
2023/07/06 02:22:27;;;;;;;12.87;12.30;;;15.50;99.90;;;;;;4972439;28;20494;-76
2023/07/06 02:24:53;;;;;;;13.37;12.80;;;15.50;99.90;;;;;;4972254;28;20455;-75
2023/07/06 02:27:20;;;;;;;14.10;13.40;;;15.40;99.90;;;;;;4972271;28;20854;-76
2023/07/06 02:29:47;;;;;;;13.37;12.77;;;15.30;99.90;;;;;;4972155;28;20455;-75
2023/07/06 02:32:15;;;;;;;13.30;12.23;;;15.30;99.90;;;;;;4972401;28;20456;-75
2023/07/06 02:34:41;;;;;;;13.53;13.00;;;15.20;99.90;;;;;;4972335;28;20547;-75
2023/07/06 02:37:10;;;;;;;12.70;12.03;;;15.20;99.90;;;;;;4972141;28;20944;-74
2023/07/06 02:39:36;;;;;;;13.00;12.50;;;15.30;99.90;;;;;;4972124;28;20467;-75
2023/07/06 02:42:04;;;;;;;13.57;12.80;;;15.30;99.90;;;;;;4971997;28;20518;-75
2023/07/06 02:44:31;;;;;;;12.67;12.17;;;15.20;99.90;;;;;;4971978;28;20447;-75
2023/07/06 02:46:58;;;;;;;14.23;13.60;;;15.20;99.90;;;;;;4972130;28;20459;-75
2023/07/06 02:49:25;;;;;;;12.80;12.20;;;15.20;99.90;;;;;;4972113;28;20456;-75
2023/07/06 02:51:51;;;;;;;13.07;12.57;;;15.20;99.90;;;;;;4971969;28;20454;-76
2023/07/06 02:54:20;;;;;;;14.00;13.40;;;15.30;99.90;;;;;;4971946;28;20448;-75
2023/07/06 02:56:47;;;;;;;12.03;11.63;;;15.30;99.90;;;;;;4971803;28;20459;-75
2023/07/06 02:59:14;;;;;;;13.97;13.23;;;15.30;99.90;;;;;;4972035;28;20980;-75
2023/07/06 03:01:40;;;;;;;15.10;14.23;;;15.30;99.90;;;;;;4971962;28;20528;-75
2023/07/06 03:04:09;;;;;;;14.57;13.37;;;15.30;99.90;;;;;;4971465;28;20476;-75
2023/07/06 03:06:36;;;;;;;13.30;12.57;;;15.30;99.90;;;;;;4971859;28;20468;-75
2023/07/06 03:09:03;;;;;;;14.57;13.77;;;15.30;99.90;;;;;;4971601;28;20534;-75
2023/07/06 03:11:31;;;;;;;15.67;14.97;;;15.30;99.90;;;;;;4971744;28;20451;-75
2023/07/06 03:13:59;;;;;;;13.40;12.80;;;15.30;99.90;;;;;;4971741;28;20455;-75
2023/07/06 03:16:26;;;;;;;15.17;14.47;;;15.20;99.90;;;;;;4971774;28;20452;-76
2023/07/06 03:18:53;;;;;;;12.70;12.10;;;15.20;99.90;;;;;;4971589;28;20463;-76
2023/07/06 03:21:20;;;;;;;11.50;11.07;;;15.20;99.90;;;;;;4971538;28;20716;-76
2023/07/06 03:23:47;;;;;;;13.53;12.97;;;15.10;99.90;;;;;;4971699;28;20533;-76
2023/07/06 03:26:14;;;;;;;14.03;13.10;;;15.10;99.90;;;;;;4971806;28;20954;-75
2023/07/06 03:28:42;;;;;;;13.97;13.47;;;15.00;99.90;;;;;;4971651;28;20864;-76
2023/07/06 03:31:09;;;;;;;14.87;14.27;;;14.90;99.90;;;;;;4971528;28;20526;-75
2023/07/06 03:33:36;;;;;;;16.00;15.20;;;14.90;99.90;;;;;;4971511;28;20463;-75
2023/07/06 03:36:03;;;;;;;13.73;12.40;;;14.90;99.90;;;;;;4971372;28;20455;-75
2023/07/06 03:38:29;;;;;;;13.90;13.20;;;14.90;99.90;;;;;;4971639;28;20459;-74
2023/07/06 03:40:56;;;;;;;14.57;13.90;;;14.90;99.90;;;;;;4971462;28;20491;-75
2023/07/06 03:43:23;;;;;;;13.20;12.60;;;14.80;99.90;;;;;;4971553;28;20451;-75
2023/07/06 03:45:51;;;;;;;13.50;12.90;;;14.80;99.90;;;;;;4971251;28;20451;-75
2023/07/06 03:48:19;;;;;;;14.47;13.47;;;14.70;99.90;;;;;;4971317;28;20456;-75
2023/07/06 03:50:46;;;;;;;14.60;13.93;;;14.70;99.90;;;;;;4971336;28;20554;-75
2023/07/06 03:53:13;;;;;;;14.23;13.53;;;14.70;99.90;;;;;;4971549;28;20444;-75
2023/07/06 03:55:40;;;;;;;14.30;13.60;;;14.70;99.90;;;;;;4971341;28;20527;-76
2023/07/06 03:58:07;;;;;;;14.53;13.93;;;14.70;99.90;;;;;;4971207;28;20546;-76
2023/07/06 04:00:35;;;;;;;13.77;13.20;;;14.70;99.90;;;;;;4971064;28;20455;-76
2023/07/06 04:03:04;;;;;;;14.30;13.70;;;14.70;99.90;;;;;;4971203;28;20498;-75
2023/07/06 04:05:34;;;;;;;15.77;15.00;;;14.70;99.90;;;;;;4970946;28;20908;-74
2023/07/06 04:08:03;;;;;;;13.80;13.20;;;14.70;99.90;;;;;;4971399;28;20525;-74
2023/07/06 04:10:31;;;;;;;14.10;13.30;;;14.70;99.90;;;;;;4971269;28;20491;-75
2023/07/06 04:12:58;;;;;;;14.37;13.60;;;14.80;99.90;;;;;;4971279;28;20444;-76
2023/07/06 04:15:25;;;;;;;15.77;14.67;;;14.80;99.90;;;;;;4973799;28;20451;-76
2023/07/06 04:17:52;;;;;;;12.93;12.43;;;14.80;99.90;;;;;;4973900;28;20455;-76
2023/07/06 04:20:23;;;;;;;14.97;13.93;;;14.80;99.90;;;;;;4974169;28;21195;-76
2023/07/06 04:22:54;;;;;;;14.43;13.83;;;14.90;99.90;;;;;;4974446;28;20846;-77
2023/07/06 04:25:22;;;;;;;14.73;13.93;;;14.80;99.90;;;;;;4974539;28;20451;-76
2023/07/06 04:27:49;;;;;;;14.37;13.77;;;14.90;99.90;;;;;;4974343;28;20448;-76
2023/07/06 04:30:18;;;;;;;14.40;13.70;;;15.00;99.90;;;;;;4974224;28;20455;-76
2023/07/06 04:32:48;;;;;;;13.43;12.73;;;15.40;99.90;;;;;;4974775;28;20459;-76
2023/07/06 04:35:17;;;;;;;12.77;12.07;;;15.80;99.90;;;;;;4974547;28;20460;-75
2023/07/06 04:37:46;;;;;;;13.10;12.50;;;16.10;99.90;;;;;;4974312;28;20463;-75
2023/07/06 04:40:17;;;;;;;12.53;12.03;;;16.30;99.90;;;;;;4974429;28;20491;-76
2023/07/06 04:42:46;;;;;;;12.70;11.93;;;16.60;99.90;;;;;;4974268;28;20495;-75
2023/07/06 04:45:13;;;;;;;13.83;13.00;;;16.70;99.90;;;;;;4974469;28;20460;-75
2023/07/06 04:47:40;;;;;;;13.10;12.47;;;17.00;99.90;;;;;;4974082;28;20502;-76
2023/07/06 04:50:08;;;;;;;13.87;13.10;;;17.20;99.90;;;;;;4974190;28;20448;-76
2023/07/06 04:52:34;;;;;;;12.50;11.90;;;17.20;99.90;;;;;;4973945;28;20472;-76
2023/07/06 04:55:03;;;;;;;11.80;11.30;;;17.30;99.90;;;;;;4973956;28;21020;-78
2023/07/06 04:57:29;;;;;;;13.17;12.57;;;17.50;99.90;;;;;;4974199;28;20463;-77
2023/07/06 04:59:56;;;;;;;12.00;11.50;;;17.50;99.90;;;;;;4974093;28;20459;-77
2023/07/06 05:02:23;;;;;;;12.40;11.90;;;17.50;99.90;;;;;;4973788;28;20499;-77
2023/07/06 05:04:51;;;;;;;13.03;12.33;;;17.50;99.90;;;;;;4973383;28;20668;-71
2023/07/06 05:07:19;;;;;;;12.90;12.13;;;17.70;99.90;;;;;;4973635;28;20474;-76
2023/07/06 05:09:49;;;;;;;14.67;13.23;;;17.70;99.90;;;;;;4973781;28;20483;-75
2023/07/06 05:12:17;;;;;;;13.03;12.43;;;17.80;99.90;;;;;;4973745;28;20809;-75
2023/07/06 05:14:43;;;;;;;13.43;12.83;;;17.90;99.90;;;;;;4973786;28;20474;-76
2023/07/06 05:17:10;;;;;;;14.40;13.70;;;18.00;99.90;;;;;;4973734;28;20454;-76
2023/07/06 05:19:37;;;;;;;11.63;11.10;;;18.10;99.90;;;;;;4973653;28;20459;-76
2023/07/06 05:22:04;;;;;;;11.63;11.03;;;18.10;99.90;;;;;;4973390;28;20546;-76
2023/07/06 05:24:31;;;;;;;13.30;12.60;;;18.20;99.90;;;;;;4973352;28;20893;-76
2023/07/06 05:26:58;;;;;;;11.43;11.03;;;18.30;99.90;;;;;;4972313;28;20464;-76
2023/07/06 05:29:26;;;;;;;11.60;11.10;;;18.40;99.90;;;;;;4973311;28;20456;-76
2023/07/06 05:31:53;;;;;;;12.30;11.70;;;18.40;99.90;;;;;;4973297;28;20456;-76
2023/07/06 05:34:19;;;;;;;12.73;12.20;;;18.50;99.90;;;;;;4973158;28;20848;-76
2023/07/06 05:36:46;;;;;;;12.03;11.50;;;18.60;99.90;;;;;;4973223;28;20451;-75
2023/07/06 05:39:13;;;;;;;12.23;11.63;;;18.60;99.90;;;;;;4973349;28;20464;-74
2023/07/06 05:41:39;;;;;;;11.30;10.80;;;18.90;99.90;;;;;;4973167;28;20487;-75
2023/07/06 05:44:06;;;;;;;11.23;10.73;;;19.30;99.90;;;;;;4972914;28;20452;-74
2023/07/06 05:46:34;;;;;;;11.93;11.37;;;19.80;99.90;;;;;;4972956;28;20462;-75
2023/07/06 05:49:01;;;;;;;12.40;11.90;;;19.90;99.90;;;;;;4972850;28;20522;-75
2023/07/06 05:51:27;;;;;;;12.03;11.43;;;20.00;99.80;;;;;;4973070;28;20455;-76
2023/07/06 05:53:54;;;;;;;12.33;11.83;;;20.30;99.40;;;;;;4973111;28;20514;-76
2023/07/06 05:56:21;;;;;;;12.70;12.20;;;20.60;98.30;;;;;;4972977;28;20448;-75
2023/07/06 05:58:48;;;;;;;12.33;11.73;;;20.90;97.70;;;;;;4972780;28;20460;-75
2023/07/06 06:01:16;;;;;;;12.07;11.60;;;20.40;98.20;;;;;;4967669;28;20479;-75
2023/07/06 06:03:45;;;;;;;12.80;12.10;;;20.50;98.50;;;;;;4972661;28;20495;-78
2023/07/06 06:06:12;;;;;;;12.47;12.03;;;20.90;98.00;;;;;;4972803;28;20546;-78
2023/07/06 06:08:38;;;;;;;11.10;10.67;;;21.10;97.10;;;;;;4972473;28;20455;-76
2023/07/06 06:11:05;;;;;;;11.83;11.23;;;21.60;96.20;;;;;;4972589;28;20452;-76
2023/07/06 06:13:32;;;;;;;12.40;11.90;;;22.10;95.00;;;;;;4972371;28;20953;-76
2023/07/06 06:15:58;;;;;;;12.90;12.40;;;22.00;94.50;;;;;;4972639;28;20451;-76
2023/07/06 06:18:25;;;;;;;11.47;11.07;;;22.00;94.20;;;;;;4972519;28;20451;-76
2023/07/06 06:20:53;;;;;;;12.63;12.20;;;22.20;93.70;;;;;;4972416;28;21033;-87
2023/07/06 06:23:20;;;;;;;13.00;12.23;;;22.30;94.00;;;;;;4972385;28;20926;-75
2023/07/06 06:25:47;;;;;;;13.00;12.50;;;22.50;92.90;;;;;;4971642;28;20456;-75
2023/07/06 06:28:16;;;;;;;12.67;12.07;;;23.10;92.80;;;;;;4972444;28;20502;-75
2023/07/06 06:30:43;;;;;;;13.57;13.07;;;23.60;90.90;;;;;;4971207;28;20857;-74
2023/07/06 06:33:10;;;;;;;13.20;12.70;;;24.10;90.20;;;;;;4970825;28;20490;-74
2023/07/06 06:35:37;;;;;;;13.47;12.87;;;24.80;88.40;;;;;;4971431;28;20484;-75
2023/07/06 06:38:05;;;;;;;13.90;13.30;;;25.30;84.00;;;;;;4971038;28;20452;-75
2023/07/06 06:40:33;;;;;;;12.77;12.27;;;25.70;82.40;;;;;;4971733;28;20452;-75
2023/07/06 06:43:00;;;;;;;13.43;12.63;;;26.00;80.60;;;;;;4971601;28;20507;-74
2023/07/06 06:45:27;;;;;;;14.90;14.30;;;26.10;77.80;;;;;;4971758;28;21024;-75
2023/07/06 06:47:54;;;;;;;13.80;13.00;;;26.30;77.20;;;;;;4971674;28;20804;-75
2023/07/06 06:50:21;;;;;;;13.47;12.77;;;26.20;77.10;;;;;;4971750;28;20807;-76
2023/07/06 06:52:48;;;;;;;12.97;12.37;;;26.40;77.40;;;;;;4971585;28;20475;-75
2023/07/06 06:55:17;;;;;;;14.17;13.50;;;27.30;75.10;;;;;;4970966;28;20946;-73
2023/07/06 06:57:45;;;;;;;15.30;14.40;;;27.70;73.00;;;;;;4971650;28;20459;-74
2023/07/06 07:00:14;;;;;;;12.53;11.87;;;28.00;71.50;;;;;;4971656;28;20494;-75
2023/07/06 07:02:41;;;;;;;12.37;11.77;;;28.10;68.60;;;;;;4966678;28;20501;-76
2023/07/06 07:05:08;;;;;;;12.20;11.70;;;28.10;67.40;;;;;;4971345;28;20546;-76
2023/07/06 07:07:37;;;;;;;12.57;11.87;;;28.00;67.20;;;;;;4971712;28;20456;-75
2023/07/06 07:10:05;;;;;;;13.40;12.50;;;28.20;67.70;;;;;;4972051;28;20467;-76
2023/07/06 07:12:33;;;;;;;13.60;13.00;;;28.40;66.90;;;;;;4971599;28;20478;-75
2023/07/06 07:14:59;;;;;;;13.60;12.70;;;28.70;66.20;;;;;;4969922;28;20451;-74
2023/07/06 07:17:33;;;;;;;13.90;13.30;;;29.30;63.30;;;;;;4971047;28;20452;-74
2023/07/06 07:20:00;;;;;;;14.83;14.23;;;30.10;59.90;;;;;;4969367;28;20448;-77
2023/07/06 07:22:27;;;;;;;13.00;12.40;;;30.20;58.90;;;;;;4971547;28;20550;-76
2023/07/06 07:24:54;;;;;;;12.47;11.97;;;30.30;57.70;;;;;;4970919;28;20503;-75
2023/07/06 07:27:22;;;;;;;12.70;12.20;;;30.00;58.30;;;;;;4971315;28;20459;-74
2023/07/06 07:29:50;;;;;;;13.53;12.93;;;29.70;58.00;;;;;;4971252;28;20857;-74
2023/07/06 07:32:20;;;;;;;15.10;14.40;;;29.40;58.90;;;;;;4971292;28;20448;-76
2023/07/06 07:34:50;;;;;;;14.07;13.53;;;30.30;56.80;;;;;;4971335;28;20522;-73
2023/07/06 07:37:18;;;;;;;14.60;14.10;;;30.30;55.90;;;;;;4971150;28;20471;-74
2023/07/06 07:39:45;;;;;;;14.23;13.63;;;30.60;54.20;;;;;;4971480;28;20525;-74
2023/07/06 07:42:12;;;;;;;13.67;13.07;;;30.80;53.40;;;;;;4971515;28;20487;-73
2023/07/06 07:44:39;;;;;;;13.83;13.40;;;31.20;52.10;;;;;;4971042;28;20452;-74
2023/07/06 07:47:07;;;;;;;14.23;13.73;;;31.30;51.80;;;;;;4970770;28;20741;-74
2023/07/06 07:49:35;;;;;;;13.30;12.80;;;31.50;50.70;;;;;;4972582;28;20529;-74
2023/07/06 07:52:02;;;;;;;13.70;13.10;;;31.70;49.60;;;;;;4974449;28;20874;-74
2023/07/06 07:54:30;;;;;;;13.50;13.07;;;31.70;49.10;;;;;;4974743;28;20867;-74
2023/07/06 07:56:57;;;;;;;13.93;13.43;;;31.40;49.10;;;;;;4974877;28;20869;-75
2023/07/06 07:59:24;;;;;;;15.17;14.57;;;31.50;49.40;;;;;;4974626;28;20463;-74
2023/07/06 08:01:51;;;;;;;14.30;13.70;;;31.70;49.30;;;;;;4974610;28;20574;-77
2023/07/06 08:04:21;;;;;;;14.53;14.03;;;32.40;48.10;;;;;;4974040;28;20530;-74
2023/07/06 08:06:47;;;;;;;14.40;13.70;;;32.60;47.00;;;;;;4974557;28;20539;-74
2023/07/06 08:09:14;;;;;;;14.30;13.77;;;33.00;45.80;;;;;;4974596;28;20823;-74
2023/07/06 08:11:46;;;;;;;13.77;13.37;;;32.40;45.80;;;;;;4974574;28;20514;-77
2023/07/06 08:14:14;;;;;;;14.60;14.10;;;33.10;45.10;;;;;;4974588;28;20458;-74
2023/07/06 08:16:40;;;;;;;15.00;14.50;;;32.80;45.70;;;;;;4974441;28;20845;-74
2023/07/06 08:19:08;;;;;;;15.40;14.70;;;32.70;45.80;;;;;;4974150;28;20542;-74
2023/07/06 08:21:36;;;;;;;14.50;13.90;;;33.10;44.90;;;;;;4974204;28;20617;-74
2023/07/06 08:24:03;;;;;;;14.03;13.53;;;32.70;44.10;;;;;;4974243;28;20570;-76
2023/07/06 08:26:31;;;;;;;15.37;14.43;;;32.00;44.50;;;;;;4974178;28;20946;-74
2023/07/06 08:28:58;;;;;;;14.37;13.87;;;32.20;45.10;;;;;;4974341;28;20463;-76
2023/07/06 08:31:26;;;;;;;14.90;14.20;;;32.60;44.30;;;;;;4974179;28;20452;-75
2023/07/06 08:33:53;;;;;;;15.10;14.60;;;32.40;44.00;;;;;;4974100;28;20923;-73
2023/07/06 08:36:21;;;;;;;13.70;13.20;;;33.10;43.30;;;;;;4974059;28;20812;-74
2023/07/06 08:38:49;;;;;;;13.70;13.20;;;33.50;43.00;;;;;;4974007;28;20539;-73
2023/07/06 08:41:26;;;;;;;13.73;13.27;;;34.10;41.90;;;;;;4973996;28;20455;-76
2023/07/06 08:43:54;;;;;;;14.03;13.43;;;33.60;41.10;;;;;;4973828;28;20490;-74
2023/07/06 08:46:21;;;;;;;15.80;15.20;;;33.70;41.80;;;;;;4973730;28;20994;-75
2023/07/06 08:48:48;;;;;;;15.67;15.13;;;33.80;41.80;;;;;;4973887;28;20555;-75
2023/07/06 08:51:19;;;;;;;13.80;13.20;;;34.00;40.40;;;;;;4973962;28;20506;-72
2023/07/06 08:53:55;;;;;;;13.93;13.47;;;32.70;41.50;;;;;;4974025;28;20455;-74
2023/07/06 08:56:25;;;;;;;14.43;13.83;;;32.20;42.30;;;;;;4973964;28;20890;-74
2023/07/06 08:58:53;;;;;;;14.30;13.80;;;32.70;42.10;;;;;;4973489;28;20945;-75
2023/07/06 09:01:23;;;;;;;15.83;14.97;;;32.50;42.00;;;;;;4968095;28;20479;-75
2023/07/06 09:03:55;;;;;;;14.43;13.93;;;32.70;41.60;;;;;;4973392;28;20891;-74
2023/07/06 09:14:13;;;;;;;14.73;14.17;;;34.30;39.80;;;;;;5004573;23;20827;-77
2023/07/06 09:16:48;;;;;;;17.70;16.10;;;34.90;39.30;;;;;;4953938;29;20571;-76
2023/07/06 09:19:17;;;;;;;16.37;15.77;;;34.70;38.50;;;;;;4944079;29;20563;-77
2023/07/06 09:21:47;;;;;;;16.57;15.77;;;35.20;38.50;;;;;;4951987;29;20496;-77
2023/07/06 09:24:14;;;;;;;15.50;14.57;;;34.00;38.40;;;;;;4950868;29;20564;-77
2023/07/06 09:26:45;;;;;;;14.90;14.40;;;34.10;39.30;;;;;;4953311;29;20444;-77
2023/07/06 09:29:18;;;;;;;14.37;13.70;;;34.50;38.10;;;;;;4953696;29;20452;-77
2023/07/06 09:31:45;;;;;;;14.50;14.00;;;34.40;37.70;;;;;;4947842;29;20460;-77
2023/07/06 09:34:27;;;;;;;16.67;15.97;;;35.00;38.30;;;;;;4939038;29;20942;-77
2023/07/06 09:36:53;;;;;;;15.20;14.40;;;35.90;37.00;;;;;;4945545;29;20949;-77
2023/07/06 09:39:20;;;;;;;14.47;13.87;;;35.60;36.30;;;;;;4953189;29;20460;-78
2023/07/06 09:41:47;;;;;;;14.87;14.20;;;35.40;36.80;;;;;;4953313;29;20448;-78
2023/07/06 09:44:20;;;;;;;13.57;13.07;;;34.80;36.60;;;;;;4953528;29;20492;-77
2023/07/06 09:46:46;;;;;;;13.80;13.30;;;34.10;37.60;;;;;;4948271;29;20741;-77
2023/07/06 09:49:17;;;;;;;13.70;13.20;;;32.70;38.60;;;;;;4948016;29;20449;-77
2023/07/06 09:51:50;;;;;;;14.33;13.83;;;33.20;39.90;;;;;;4965275;29;20445;-77
2023/07/06 09:54:20;;;;;;;15.57;15.07;;;34.50;38.80;;;;;;4972578;29;20464;-77
2023/07/06 09:56:47;;;;;;;16.57;15.97;;;35.50;36.30;;;;;;4974759;29;20448;-78
2023/07/06 09:59:16;;;;;;;16.03;15.43;;;36.00;47.70;;;;;;4975341;29;20480;-78
2023/07/06 10:01:53;;;;;;;15.50;15.00;;;36.10;35.50;;;;;;4968982;29;20478;-78
2023/07/06 10:04:44;;;;;;;16.20;15.40;;;35.60;35.40;;;;;;4956493;29;20889;-78
2023/07/06 10:07:20;;;;;;;15.20;14.60;;;34.10;37.40;;;;;;4953592;29;20461;-78
2023/07/06 10:09:56;;;;;;;15.73;14.70;;;33.60;38.40;;;;;;4949067;29;20489;-78
2023/07/06 10:12:33;;;;;;;14.90;14.30;;;33.30;38.80;;;;;;4942604;28;20484;-78
2023/07/06 10:15:05;;;;;;;14.63;14.13;;;33.30;37.80;;;;;;4953034;29;20461;-80
2023/07/06 10:17:37;;;;;;;15.43;14.73;;;32.30;39.20;;;;;;4955797;28;20461;-78
2023/07/06 10:20:13;;;;;;;14.80;14.30;;;31.40;40.10;;;;;;4964112;28;20819;-78
2023/07/06 10:23:03;;;;;;;14.20;13.60;;;30.40;41.00;;;;;;4972380;28;20451;-77
2023/07/06 10:25:34;;;;;;;13.80;13.20;;;29.40;41.90;;;;;;4972209;28;20497;-76
2023/07/06 10:28:05;;;;;;;13.83;13.23;;;28.90;44.10;;;;;;4972263;28;20487;-77
2023/07/06 10:30:37;;;;;;;14.33;13.83;;;30.20;43.70;;;;;;4972061;28;20456;-78
2023/07/06 10:33:11;;;;;;;14.80;14.20;;;32.10;39.90;;;;;;4972206;28;20454;-78
2023/07/06 10:35:45;;;;;;;13.93;13.33;;;32.50;39.00;;;;;;4972116;28;20491;-77
2023/07/06 10:38:12;;;;;;;14.60;14.00;;;32.00;39.70;;;;;;4971573;28;20537;-78
2023/07/06 10:40:40;;;;;;;14.03;13.53;;;31.40;40.40;;;;;;4965040;28;20456;-78
2023/07/06 10:43:18;;;;;;;16.33;15.60;;;30.90;40.80;;;;;;4971508;28;20492;-77
2023/07/06 10:45:50;;;;;;;15.50;14.90;;;31.40;41.30;;;;;;4969591;28;20447;-78
2023/07/06 10:48:28;;;;;;;14.83;13.93;;;31.50;39.70;;;;;;4971801;28;20807;-78
2023/07/06 10:51:12;;;;;;;14.00;13.50;;;30.80;40.60;;;;;;4969874;28;20468;-79
2023/07/06 10:53:41;;;;;;;14.70;14.10;;;30.10;42.50;;;;;;4969902;28;20447;-77
2023/07/06 10:56:17;;;;;;;14.60;14.10;;;31.00;41.40;;;;;;4971286;28;20447;-79
2023/07/06 10:58:49;;;;;;;14.20;13.70;;;31.90;39.50;;;;;;4969485;28;20845;-77
2023/07/06 11:01:20;;;;;;;14.67;14.13;;;32.80;39.70;;;;;;4971305;28;20471;-78
2023/07/06 11:03:47;;;;;;;15.57;14.97;;;34.20;36.70;;;;;;4969766;28;20924;-76
2023/07/06 11:06:18;;;;;;;15.77;15.10;;;34.70;36.10;;;;;;4971226;28;20455;-77
2023/07/06 11:37:22;;;;;;;16.23;15.40;;;36.60;31.90;;;;;;5442353;23;20488;-74
2023/07/06 11:39:59;;;;;;;17.30;16.60;;;37.40;31.90;;;;;;4942181;29;20531;-74
2023/07/06 11:42:39;;;;;;;15.57;14.97;;;37.70;32.10;;;;;;4946349;29;20480;-74
2023/07/06 11:45:13;;;;;;;14.70;14.20;;;36.70;33.00;;;;;;4937897;29;20488;-74
2023/07/06 11:47:54;;;;;;;14.57;14.03;;;35.40;34.00;;;;;;4946740;29;20462;-74
2023/07/06 11:50:22;;;;;;;15.40;14.80;;;34.40;34.10;;;;;;4940611;29;20489;-74
2023/07/06 11:52:58;;;;;;;15.23;14.43;;;32.20;36.40;;;;;;4944066;29;20461;-74
2023/07/06 11:55:31;;;;;;;14.10;13.50;;;30.30;38.70;;;;;;4935614;29;20461;-74
2023/07/06 11:58:07;;;;;;;15.00;14.40;;;29.60;40.40;;;;;;4942344;29;20489;-74
2023/07/06 12:00:52;;;;;;;13.97;13.47;;;28.80;41.80;;;;;;4952461;29;20455;-75
2023/07/06 12:03:20;;;;;;;13.63;13.13;;;28.80;42.40;;;;;;4949681;29;20516;-74
2023/07/06 12:05:49;;;;;;;14.50;13.60;;;29.00;42.00;;;;;;4944069;29;20824;-74
2023/07/06 12:08:22;;;;;;;14.27;13.77;;;30.10;41.10;;;;;;4935621;29;20556;-74
2023/07/06 12:10:52;;;;;;;15.10;14.50;;;31.90;38.60;;;;;;4935862;29;20488;-74
2023/07/06 12:13:25;;;;;;;14.90;14.20;;;33.90;36.80;;;;;;4935680;29;20548;-75
2023/07/06 12:15:55;;;;;;;15.57;14.97;;;34.40;35.00;;;;;;4940668;29;20480;-74
2023/07/06 12:18:23;;;;;;;15.83;15.23;;;34.80;35.00;;;;;;4940066;29;20457;-72
2023/07/06 12:20:52;;;;;;;15.50;14.90;;;34.80;34.40;;;;;;4935357;29;20449;-75
2023/07/06 12:23:20;;;;;;;14.53;13.93;;;34.70;34.10;;;;;;4935472;29;20516;-75
2023/07/06 12:25:47;;;;;;;14.63;14.10;;;35.00;33.60;;;;;;4935447;29;20457;-74
2023/07/06 12:28:15;;;;;;;14.37;13.77;;;35.40;33.60;;;;;;4934932;29;20534;-72
2023/07/06 12:30:44;;;;;;;15.97;15.37;;;35.50;33.20;;;;;;4937907;29;20501;-73
2023/07/06 12:33:13;;;;;;;15.37;14.77;;;34.70;33.60;;;;;;4941905;29;20491;-72
2023/07/06 12:35:40;;;;;;;15.17;14.67;;;34.30;34.50;;;;;;4926860;29;21023;-72
2023/07/06 12:38:13;;;;;;;14.50;13.90;;;34.40;33.80;;;;;;4944605;29;20914;-72
2023/07/06 12:40:43;;;;;;;15.00;14.40;;;34.30;34.30;;;;;;4947820;29;20476;-72
2023/07/06 12:43:18;;;;;;;14.67;14.17;;;35.00;33.80;;;;;;4934732;29;20835;-73
2023/07/06 12:45:45;;;;;;;13.67;13.10;;;35.40;32.70;;;;;;4934713;29;20449;-72
2023/07/06 12:48:20;;;;;;;14.13;13.63;;;34.60;33.60;;;;;;4942184;29;20475;-74
2023/07/06 12:50:50;;;;;;;13.70;13.10;;;33.40;35.00;;;;;;4946724;29;20478;-72
2023/07/06 12:53:22;;;;;;;13.57;13.07;;;31.80;35.70;;;;;;4939193;29;20470;-72
2023/07/06 12:55:52;;;;;;;13.90;13.20;;;32.00;37.70;;;;;;4940057;29;20959;-72
2023/07/06 12:58:27;;;;;;;15.57;14.80;;;33.40;36.40;;;;;;4934580;29;20513;-72
2023/07/06 13:01:01;;;;;;;15.53;15.03;;;34.20;34.70;;;;;;4934448;29;20465;-73
2023/07/06 13:03:28;;;;;;;13.97;13.27;;;34.70;33.90;;;;;;4934430;29;20905;-73
2023/07/06 13:05:56;;;;;;;14.37;13.87;;;35.30;33.30;;;;;;4934183;29;20460;-73
2023/07/06 13:08:23;;;;;;;15.80;15.20;;;35.50;32.40;;;;;;4934264;29;20457;-73
2023/07/06 13:11:02;;;;;;;15.23;14.73;;;36.30;31.80;;;;;;4934866;29;20453;-73
2023/07/06 13:13:36;;;;;;;15.07;14.47;;;35.10;32.00;;;;;;4934178;29;20460;-73
2023/07/06 13:16:07;;;;;;;14.97;14.37;;;34.40;33.60;;;;;;4934295;29;20508;-73